sensor_id;sensor_type;location;lat;lon;timestamp;pressure;altitude;pressure_sealevel;temperature;humidity
10716;BME280;5409;42.620;23.316;2022-09-09T00:02:05;92516.72;;;16.80;100.00
10716;BME280;5409;42.620;23.316;2022-09-09T00:04:38;92506.28;;;16.84;100.00
10716;BME280;5409;42.620;23.316;2022-09-09T00:07:10;92510.34;;;16.89;100.00
10716;BME280;5409;42.620;23.316;2022-09-09T00:09:45;92522.44;;;16.91;100.00
10716;BME280;5409;42.620;23.316;2022-09-09T00:12:16;92512.16;;;16.92;100.00
10716;BME280;5409;42.620;23.316;2022-09-09T00:14:51;92508.66;;;16.91;100.00
10716;BME280;5409;42.620;23.316;2022-09-09T00:17:27;92518.69;;;16.94;100.00
10716;BME280;5409;42.620;23.316;2022-09-09T00:20:01;92519.75;;;16.97;100.00
10716;BME280;5409;42.620;23.316;2022-09-09T00:22:30;92514.25;;;16.97;100.00
10716;BME280;5409;42.620;23.316;2022-09-09T00:25:02;92517.75;;;16.97;100.00
10716;BME280;5409;42.620;23.316;2022-09-09T00:27:39;92502.28;;;17.00;100.00
10716;BME280;5409;42.620;23.316;2022-09-09T00:30:15;92497.53;;;17.00;100.00
10716;BME280;5409;42.620;23.316;2022-09-09T00:32:45;92491.00;;;16.98;100.00
10716;BME280;5409;42.620;23.316;2022-09-09T00:35:17;92498.00;;;16.99;100.00
10716;BME280;5409;42.620;23.316;2022-09-09T00:37:48;92487.75;;;16.99;100.00
10716;BME280;5409;42.620;23.316;2022-09-09T00:40:23;92483.66;;;16.95;100.00
10716;BME280;5409;42.620;23.316;2022-09-09T00:42:58;92482.63;;;16.92;100.00
10716;BME280;5409;42.620;23.316;2022-09-09T00:45:52;92469.53;;;16.87;100.00
10716;BME280;5409;42.620;23.316;2022-09-09T00:48:28;92475.31;;;16.89;100.00
10716;BME280;5409;42.620;23.316;2022-09-09T00:51:09;92471.34;;;16.90;100.00
10716;BME280;5409;42.620;23.316;2022-09-09T00:53:59;92472.00;;;16.85;100.00
10716;BME280;5409;42.620;23.316;2022-09-09T00:56:35;92466.00;;;16.87;100.00
10716;BME280;5409;42.620;23.316;2022-09-09T00:59:16;92468.28;;;16.88;100.00
10716;BME280;5409;42.620;23.316;2022-09-09T01:01:48;92467.22;;;16.86;100.00
10716;BME280;5409;42.620;23.316;2022-09-09T01:04:20;92473.22;;;16.84;100.00
10716;BME280;5409;42.620;23.316;2022-09-09T01:07:00;92472.81;;;16.77;100.00
10716;BME280;5409;42.620;23.316;2022-09-09T01:09:32;92478.91;;;16.66;100.00
10716;BME280;5409;42.620;23.316;2022-09-09T01:12:10;92471.13;;;16.65;100.00
10716;BME280;5409;42.620;23.316;2022-09-09T01:14:43;92463.03;;;16.61;100.00
10716;BME280;5409;42.620;23.316;2022-09-09T01:17:15;92478.16;;;16.66;100.00
10716;BME280;5409;42.620;23.316;2022-09-09T01:19:55;92477.78;;;16.73;100.00
10716;BME280;5409;42.620;23.316;2022-09-09T01:22:34;92475.97;;;16.70;100.00
10716;BME280;5409;42.620;23.316;2022-09-09T01:25:22;92470.53;;;16.61;100.00
10716;BME280;5409;42.620;23.316;2022-09-09T01:27:54;92471.19;;;16.56;100.00
10716;BME280;5409;42.620;23.316;2022-09-09T01:30:23;92469.22;;;16.56;100.00
10716;BME280;5409;42.620;23.316;2022-09-09T01:32:53;92464.94;;;16.55;100.00
10716;BME280;5409;42.620;23.316;2022-09-09T01:35:29;92470.34;;;16.50;100.00
10716;BME280;5409;42.620;23.316;2022-09-09T01:37:58;92468.72;;;16.43;100.00
10716;BME280;5409;42.620;23.316;2022-09-09T01:40:25;92478.66;;;16.41;100.00
10716;BME280;5409;42.620;23.316;2022-09-09T01:42:54;92479.53;;;16.47;100.00
10716;BME280;5409;42.620;23.316;2022-09-09T01:45:22;92479.72;;;16.43;100.00
10716;BME280;5409;42.620;23.316;2022-09-09T01:47:51;92489.78;;;16.46;100.00
10716;BME280;5409;42.620;23.316;2022-09-09T01:50:19;92485.50;;;16.45;100.00
10716;BME280;5409;42.620;23.316;2022-09-09T01:52:48;92486.56;;;16.48;100.00
10716;BME280;5409;42.620;23.316;2022-09-09T01:55:18;92491.31;;;16.47;100.00
10716;BME280;5409;42.620;23.316;2022-09-09T01:57:53;92494.06;;;16.47;100.00
10716;BME280;5409;42.620;23.316;2022-09-09T02:00:24;92494.06;;;16.47;100.00
10716;BME280;5409;42.620;23.316;2022-09-09T02:02:59;92493.00;;;16.45;100.00
10716;BME280;5409;42.620;23.316;2022-09-09T02:05:34;92487.97;;;16.43;100.00
10716;BME280;5409;42.620;23.316;2022-09-09T02:08:06;92472.88;;;16.39;100.00
10716;BME280;5409;42.620;23.316;2022-09-09T02:10:38;92480.31;;;16.47;100.00
10716;BME280;5409;42.620;23.316;2022-09-09T02:13:11;92482.00;;;16.45;100.00
10716;BME280;5409;42.620;23.316;2022-09-09T02:15:44;92483.50;;;16.46;100.00
10716;BME280;5409;42.620;23.316;2022-09-09T02:18:15;92467.56;;;16.50;100.00
10716;BME280;5409;42.620;23.316;2022-09-09T02:20:47;92470.63;;;16.52;100.00
10716;BME280;5409;42.620;23.316;2022-09-09T02:23:15;92462.28;;;16.46;100.00
10716;BME280;5409;42.620;23.316;2022-09-09T02:25:42;92463.22;;;16.43;100.00
10716;BME280;5409;42.620;23.316;2022-09-09T02:28:13;92462.53;;;16.34;100.00
10716;BME280;5409;42.620;23.316;2022-09-09T02:30:44;92454.88;;;16.38;100.00
10716;BME280;5409;42.620;23.316;2022-09-09T02:33:14;92461.16;;;16.29;100.00
10716;BME280;5409;42.620;23.316;2022-09-09T02:35:41;92462.66;;;16.30;100.00
10716;BME280;5409;42.620;23.316;2022-09-09T02:38:12;92444.72;;;16.20;100.00
10716;BME280;5409;42.620;23.316;2022-09-09T02:40:40;92474.56;;;16.36;100.00
10716;BME280;5409;42.620;23.316;2022-09-09T02:43:07;92469.56;;;16.35;100.00
10716;BME280;5409;42.620;23.316;2022-09-09T02:45:39;92477.81;;;16.35;100.00
10716;BME280;5409;42.620;23.316;2022-09-09T02:48:14;92485.16;;;16.29;100.00
10716;BME280;5409;42.620;23.316;2022-09-09T02:50:48;92488.28;;;16.22;100.00
10716;BME280;5409;42.620;23.316;2022-09-09T02:53:24;92488.63;;;16.15;100.00
10716;BME280;5409;42.620;23.316;2022-09-09T02:55:58;92485.13;;;16.14;100.00
10716;BME280;5409;42.620;23.316;2022-09-09T02:58:25;92487.59;;;16.12;100.00
10716;BME280;5409;42.620;23.316;2022-09-09T03:00:52;92477.53;;;16.09;100.00
10716;BME280;5409;42.620;23.316;2022-09-09T03:03:21;92474.56;;;16.13;100.00
10716;BME280;5409;42.620;23.316;2022-09-09T03:05:47;92475.66;;;16.15;100.00
10716;BME280;5409;42.620;23.316;2022-09-09T03:08:14;92476.09;;;16.14;100.00
10716;BME280;5409;42.620;23.316;2022-09-09T03:10:41;92466.69;;;16.06;100.00
10716;BME280;5409;42.620;23.316;2022-09-09T03:13:08;92479.88;;;16.02;100.00
10716;BME280;5409;42.620;23.316;2022-09-09T03:15:34;92487.09;;;15.91;100.00
10716;BME280;5409;42.620;23.316;2022-09-09T03:18:02;92479.50;;;15.86;100.00
10716;BME280;5409;42.620;23.316;2022-09-09T03:20:31;92462.50;;;15.73;100.00
10716;BME280;5409;42.620;23.316;2022-09-09T03:22:59;92484.19;;;15.94;100.00
10716;BME280;5409;42.620;23.316;2022-09-09T03:25:26;92480.22;;;15.95;100.00
10716;BME280;5409;42.620;23.316;2022-09-09T03:27:54;92482.03;;;15.98;100.00
10716;BME280;5409;42.620;23.316;2022-09-09T03:30:21;92476.28;;;15.87;100.00
10716;BME280;5409;42.620;23.316;2022-09-09T03:32:48;92485.97;;;15.83;100.00
10716;BME280;5409;42.620;23.316;2022-09-09T03:35:15;92485.66;;;15.81;100.00
10716;BME280;5409;42.620;23.316;2022-09-09T03:37:43;92464.66;;;15.69;100.00
10716;BME280;5409;42.620;23.316;2022-09-09T03:40:11;92478.16;;;15.81;100.00
10716;BME280;5409;42.620;23.316;2022-09-09T03:42:37;92485.66;;;15.81;100.00
10716;BME280;5409;42.620;23.316;2022-09-09T03:45:06;92463.94;;;15.59;100.00
10716;BME280;5409;42.620;23.316;2022-09-09T03:47:34;92478.66;;;15.80;100.00
10716;BME280;5409;42.620;23.316;2022-09-09T03:50:01;92477.88;;;15.79;100.00
10716;BME280;5409;42.620;23.316;2022-09-09T03:52:29;92480.22;;;15.72;100.00
10716;BME280;5409;42.620;23.316;2022-09-09T03:54:57;92474.31;;;15.64;100.00
10716;BME280;5409;42.620;23.316;2022-09-09T03:57:24;92480.25;;;15.63;100.00
10716;BME280;5409;42.620;23.316;2022-09-09T03:59:51;92482.38;;;15.68;100.00
10716;BME280;5409;42.620;23.316;2022-09-09T04:02:17;92482.06;;;15.66;100.00
10716;BME280;5409;42.620;23.316;2022-09-09T04:04:44;92491.44;;;15.59;100.00
10716;BME280;5409;42.620;23.316;2022-09-09T04:07:11;92488.69;;;15.59;100.00
10716;BME280;5409;42.620;23.316;2022-09-09T04:09:38;92486.97;;;15.62;100.00
10716;BME280;5409;42.620;23.316;2022-09-09T04:12:06;92478.41;;;15.69;100.00
10716;BME280;5409;42.620;23.316;2022-09-09T04:14:33;92491.94;;;15.72;100.00
10716;BME280;5409;42.620;23.316;2022-09-09T04:16:59;92486.88;;;15.80;100.00
10716;BME280;5409;42.620;23.316;2022-09-09T04:19:29;92481.78;;;15.87;100.00
10716;BME280;5409;42.620;23.316;2022-09-09T04:21:56;92479.75;;;15.97;100.00
10716;BME280;5409;42.620;23.316;2022-09-09T04:24:26;92477.13;;;16.02;100.00
10716;BME280;5409;42.620;23.316;2022-09-09T04:26:54;92481.50;;;16.08;100.00
10716;BME280;5409;42.620;23.316;2022-09-09T04:29:22;92476.63;;;16.03;100.00
10716;BME280;5409;42.620;23.316;2022-09-09T04:31:49;92481.50;;;16.08;100.00
10716;BME280;5409;42.620;23.316;2022-09-09T04:34:16;92483.59;;;16.13;100.00
10716;BME280;5409;42.620;23.316;2022-09-09T04:36:42;92482.66;;;16.16;100.00
10716;BME280;5409;42.620;23.316;2022-09-09T04:39:09;92486.66;;;16.15;100.00
10716;BME280;5409;42.620;23.316;2022-09-09T04:41:36;92502.84;;;16.13;100.00
10716;BME280;5409;42.620;23.316;2022-09-09T04:44:03;92503.03;;;16.10;100.00
10716;BME280;5409;42.620;23.316;2022-09-09T04:46:31;92505.78;;;16.10;100.00
10716;BME280;5409;42.620;23.316;2022-09-09T04:48:59;92513.56;;;16.11;100.00
10716;BME280;5409;42.620;23.316;2022-09-09T04:51:26;92497.16;;;16.17;100.00
10716;BME280;5409;42.620;23.316;2022-09-09T04:53:53;92483.22;;;16.20;100.00
10716;BME280;5409;42.620;23.316;2022-09-09T04:56:20;92482.41;;;16.29;100.00
10716;BME280;5409;42.620;23.316;2022-09-09T04:58:46;92470.94;;;16.30;100.00
10716;BME280;5409;42.620;23.316;2022-09-09T05:01:14;92473.88;;;16.27;100.00
10716;BME280;5409;42.620;23.316;2022-09-09T05:03:43;92468.44;;;16.41;100.00
10716;BME280;5409;42.620;23.316;2022-09-09T05:06:12;92471.56;;;16.49;100.00
10716;BME280;5409;42.620;23.316;2022-09-09T05:08:40;92462.66;;;16.54;100.00
10716;BME280;5409;42.620;23.316;2022-09-09T05:11:13;92458.75;;;16.60;100.00
10716;BME280;5409;42.620;23.316;2022-09-09T05:13:40;92462.38;;;16.66;100.00
10716;BME280;5409;42.620;23.316;2022-09-09T05:16:07;92472.38;;;16.78;100.00
10716;BME280;5409;42.620;23.316;2022-09-09T05:18:35;92468.09;;;16.77;100.00
10716;BME280;5409;42.620;23.316;2022-09-09T05:21:04;92455.34;;;16.80;100.00
10716;BME280;5409;42.620;23.316;2022-09-09T05:23:31;92476.84;;;17.05;100.00
10716;BME280;5409;42.620;23.316;2022-09-09T05:25:59;92465.97;;;17.15;100.00
10716;BME280;5409;42.620;23.316;2022-09-09T05:28:27;92466.16;;;17.26;100.00
10716;BME280;5409;42.620;23.316;2022-09-09T05:30:58;92466.94;;;17.41;100.00
10716;BME280;5409;42.620;23.316;2022-09-09T05:33:25;92474.41;;;17.55;100.00
10716;BME280;5409;42.620;23.316;2022-09-09T05:35:59;92468.84;;;17.70;100.00
10716;BME280;5409;42.620;23.316;2022-09-09T05:38:28;92479.09;;;17.84;100.00
10716;BME280;5409;42.620;23.316;2022-09-09T05:40:56;92483.81;;;17.98;100.00
10716;BME280;5409;42.620;23.316;2022-09-09T05:43:23;92481.47;;;18.11;100.00
10716;BME280;5409;42.620;23.316;2022-09-09T05:45:59;92498.16;;;18.22;100.00
10716;BME280;5409;42.620;23.316;2022-09-09T05:48:28;92488.28;;;18.30;100.00
10716;BME280;5409;42.620;23.316;2022-09-09T05:50:54;92503.03;;;18.46;100.00
10716;BME280;5409;42.620;23.316;2022-09-09T05:53:21;92501.09;;;18.52;100.00
10716;BME280;5409;42.620;23.316;2022-09-09T05:55:49;92500.19;;;18.61;100.00
10716;BME280;5409;42.620;23.316;2022-09-09T05:58:16;92494.78;;;18.72;100.00
10716;BME280;5409;42.620;23.316;2022-09-09T06:00:43;92493.88;;;18.80;100.00
10716;BME280;5409;42.620;23.316;2022-09-09T06:03:10;92504.03;;;18.89;100.00
10716;BME280;5409;42.620;23.316;2022-09-09T06:05:37;92506.53;;;18.87;100.00
10716;BME280;5409;42.620;23.316;2022-09-09T06:08:04;92512.31;;;18.89;100.00
10716;BME280;5409;42.620;23.316;2022-09-09T06:10:31;92524.56;;;19.08;100.00
10716;BME280;5409;42.620;23.316;2022-09-09T06:13:00;92526.06;;;19.09;100.00
10716;BME280;5409;42.620;23.316;2022-09-09T06:15:27;92526.41;;;19.16;100.00
10716;BME280;5409;42.620;23.316;2022-09-09T06:17:56;92515.78;;;19.09;100.00
10716;BME280;5409;42.620;23.316;2022-09-09T06:20:22;92529.31;;;19.27;100.00
10716;BME280;5409;42.620;23.316;2022-09-09T06:22:50;92515.91;;;19.20;100.00
10716;BME280;5409;42.620;23.316;2022-09-09T06:25:16;92516.34;;;19.39;100.00
10716;BME280;5409;42.620;23.316;2022-09-09T06:27:48;92525.25;;;19.48;100.00
10716;BME280;5409;42.620;23.316;2022-09-09T06:30:16;92522.72;;;19.50;100.00
10716;BME280;5409;42.620;23.316;2022-09-09T06:32:43;92524.75;;;19.50;100.00
10716;BME280;5409;42.620;23.316;2022-09-09T06:35:10;92517.00;;;19.59;100.00
10716;BME280;5409;42.620;23.316;2022-09-09T06:37:37;92523.19;;;19.74;100.00
10716;BME280;5409;42.620;23.316;2022-09-09T06:40:04;92512.38;;;19.76;100.00
10716;BME280;5409;42.620;23.316;2022-09-09T06:42:31;92516.72;;;19.88;100.00
10716;BME280;5409;42.620;23.316;2022-09-09T06:44:58;92512.63;;;20.09;100.00
10716;BME280;5409;42.620;23.316;2022-09-09T06:47:27;92514.22;;;20.21;100.00
10716;BME280;5409;42.620;23.316;2022-09-09T06:49:55;92524.41;;;20.46;100.00
10716;BME280;5409;42.620;23.316;2022-09-09T06:52:22;92536.16;;;20.30;100.00
10716;BME280;5409;42.620;23.316;2022-09-09T06:54:50;92539.09;;;20.57;100.00
10716;BME280;5409;42.620;23.316;2022-09-09T06:57:16;92545.47;;;20.79;100.00
10716;BME280;5409;42.620;23.316;2022-09-09T06:59:43;92545.94;;;21.31;100.00
10716;BME280;5409;42.620;23.316;2022-09-09T07:02:10;92554.28;;;21.47;100.00
10716;BME280;5409;42.620;23.316;2022-09-09T07:04:38;92555.28;;;21.50;100.00
10716;BME280;5409;42.620;23.316;2022-09-09T07:07:04;92557.06;;;21.47;100.00
10716;BME280;5409;42.620;23.316;2022-09-09T07:09:31;92557.75;;;21.31;100.00
10716;BME280;5409;42.620;23.316;2022-09-09T07:11:58;92537.81;;;21.22;100.00
10716;BME280;5409;42.620;23.316;2022-09-09T07:14:25;92547.69;;;21.34;100.00
10716;BME280;5409;42.620;23.316;2022-09-09T07:16:53;92546.44;;;21.29;100.00
10716;BME280;5409;42.620;23.316;2022-09-09T07:19:19;92547.97;;;21.58;100.00
10716;BME280;5409;42.620;23.316;2022-09-09T07:21:47;92548.50;;;21.67;100.00
10716;BME280;5409;42.620;23.316;2022-09-09T07:24:14;92552.78;;;22.28;100.00
10716;BME280;5409;42.620;23.316;2022-09-09T07:26:41;92538.31;;;22.79;97.41
10716;BME280;5409;42.620;23.316;2022-09-09T07:29:09;92545.97;;;23.24;92.85
10716;BME280;5409;42.620;23.316;2022-09-09T07:31:39;92548.16;;;22.80;94.78
10716;BME280;5409;42.620;23.316;2022-09-09T07:34:06;92538.41;;;22.24;98.51
10716;BME280;5409;42.620;23.316;2022-09-09T07:36:34;92525.44;;;22.76;96.66
10716;BME280;5409;42.620;23.316;2022-09-09T07:39:05;92551.25;;;23.33;90.78
10716;BME280;5409;42.620;23.316;2022-09-09T07:41:34;92550.53;;;23.27;89.16
10716;BME280;5409;42.620;23.316;2022-09-09T07:44:05;92541.09;;;23.41;88.08
10716;BME280;5409;42.620;23.316;2022-09-09T07:46:33;92554.53;;;23.83;87.36
10716;BME280;5409;42.620;23.316;2022-09-09T07:49:00;92553.13;;;24.01;85.39
10716;BME280;5409;42.620;23.316;2022-09-09T07:51:28;92559.16;;;24.05;84.90
10716;BME280;5409;42.620;23.316;2022-09-09T07:53:57;92557.72;;;24.27;85.36
10716;BME280;5409;42.620;23.316;2022-09-09T07:56:26;92559.81;;;24.51;81.46
10716;BME280;5409;42.620;23.316;2022-09-09T07:58:55;92561.84;;;24.74;79.00
10716;BME280;5409;42.620;23.316;2022-09-09T08:01:25;92548.09;;;24.23;83.07
10716;BME280;5409;42.620;23.316;2022-09-09T08:03:54;92546.22;;;24.36;87.03
10716;BME280;5409;42.620;23.316;2022-09-09T08:06:21;92550.41;;;24.54;84.91
10716;BME280;5409;42.620;23.316;2022-09-09T08:08:51;92535.81;;;24.37;84.50
10716;BME280;5409;42.620;23.316;2022-09-09T08:11:18;92538.22;;;24.22;83.04
10716;BME280;5409;42.620;23.316;2022-09-09T08:13:46;92551.13;;;24.25;82.70
10716;BME280;5409;42.620;23.316;2022-09-09T08:16:15;92536.06;;;24.10;88.95
10716;BME280;5409;42.620;23.316;2022-09-09T08:18:43;92546.66;;;23.82;85.53
10716;BME280;5409;42.620;23.316;2022-09-09T08:21:11;92549.16;;;23.85;91.48
10716;BME280;5409;42.620;23.316;2022-09-09T08:23:39;92546.75;;;23.65;87.58
10716;BME280;5409;42.620;23.316;2022-09-09T08:26:08;92556.72;;;23.50;91.49
10716;BME280;5409;42.620;23.316;2022-09-09T08:28:36;92541.63;;;23.34;92.49
10716;BME280;5409;42.620;23.316;2022-09-09T08:31:15;92548.56;;;23.57;86.38
10716;BME280;5409;42.620;23.316;2022-09-09T08:33:43;92554.19;;;23.52;87.90
10716;BME280;5409;42.620;23.316;2022-09-09T08:36:13;92541.44;;;23.67;92.19
10716;BME280;5409;42.620;23.316;2022-09-09T08:38:41;92545.81;;;23.98;96.92
10716;BME280;5409;42.620;23.316;2022-09-09T08:41:30;92549.09;;;23.96;90.10
10716;BME280;5409;42.620;23.316;2022-09-09T08:44:02;92548.84;;;23.94;90.40
10716;BME280;5409;42.620;23.316;2022-09-09T08:46:42;92550.91;;;23.94;85.20
10716;BME280;5409;42.620;23.316;2022-09-09T08:49:20;92544.00;;;24.00;83.17
10716;BME280;5409;42.620;23.316;2022-09-09T08:51:54;92554.56;;;23.72;90.66
10716;BME280;5409;42.620;23.316;2022-09-09T08:54:23;92537.63;;;23.70;87.24
10716;BME280;5409;42.620;23.316;2022-09-09T08:56:50;92542.47;;;23.64;88.00
10716;BME280;5409;42.620;23.316;2022-09-09T08:59:18;92544.59;;;23.47;92.81
10716;BME280;5409;42.620;23.316;2022-09-09T09:02:00;92537.28;;;23.85;90.15
10716;BME280;5409;42.620;23.316;2022-09-09T09:04:41;92544.41;;;23.80;84.82
10716;BME280;5409;42.620;23.316;2022-09-09T09:07:21;92549.16;;;24.49;86.23
10716;BME280;5409;42.620;23.316;2022-09-09T09:09:58;92546.91;;;25.20;78.95
10716;BME280;5409;42.620;23.316;2022-09-09T09:12:31;92550.75;;;25.90;75.63
10716;BME280;5409;42.620;23.316;2022-09-09T09:15:11;92547.41;;;25.73;71.68
10716;BME280;5409;42.620;23.316;2022-09-09T09:17:43;92546.38;;;25.40;75.54
10716;BME280;5409;42.620;23.316;2022-09-09T09:20:12;92541.81;;;25.18;74.42
10716;BME280;5409;42.620;23.316;2022-09-09T09:22:47;92542.25;;;25.46;77.58
10716;BME280;5409;42.620;23.316;2022-09-09T09:25:17;92537.53;;;25.54;84.84
10716;BME280;5409;42.620;23.316;2022-09-09T09:27:48;92539.88;;;25.32;79.99
10716;BME280;5409;42.620;23.316;2022-09-09T09:30:19;92531.94;;;25.17;74.65
10716;BME280;5409;42.620;23.316;2022-09-09T09:32:52;92546.59;;;24.99;75.24
10716;BME280;5409;42.620;23.316;2022-09-09T09:35:20;92523.56;;;24.45;77.62
10716;BME280;5409;42.620;23.316;2022-09-09T09:37:48;92539.19;;;24.59;76.42
10716;BME280;5409;42.620;23.316;2022-09-09T09:40:17;92536.94;;;25.00;83.43
10716;BME280;5409;42.620;23.316;2022-09-09T09:42:49;92535.00;;;25.14;75.88
10716;BME280;5409;42.620;23.316;2022-09-09T09:45:26;92532.94;;;25.20;74.93
10716;BME280;5409;42.620;23.316;2022-09-09T09:48:06;92518.41;;;25.03;75.91
10716;BME280;5409;42.620;23.316;2022-09-09T09:50:33;92520.13;;;25.06;76.76
10716;BME280;5409;42.620;23.316;2022-09-09T09:53:03;92524.56;;;25.20;73.23
10716;BME280;5409;42.620;23.316;2022-09-09T09:55:31;92528.34;;;25.41;71.25
10716;BME280;5409;42.620;23.316;2022-09-09T09:58:03;92516.94;;;25.57;74.76
10716;BME280;5409;42.620;23.316;2022-09-09T10:00:30;92518.38;;;25.63;67.89
10716;BME280;5409;42.620;23.316;2022-09-09T10:02:59;92518.44;;;25.76;73.89
10716;BME280;5409;42.620;23.316;2022-09-09T10:05:29;92513.84;;;25.79;75.48
10716;BME280;5409;42.620;23.316;2022-09-09T10:08:01;92522.50;;;25.75;71.83
10716;BME280;5409;42.620;23.316;2022-09-09T10:10:36;92511.81;;;25.24;72.80
10716;BME280;5409;42.620;23.316;2022-09-09T10:13:11;92512.41;;;25.17;78.57
10716;BME280;5409;42.620;23.316;2022-09-09T10:15:45;92521.25;;;24.97;74.03
10716;BME280;5409;42.620;23.316;2022-09-09T10:18:25;92525.34;;;24.96;80.27
10716;BME280;5409;42.620;23.316;2022-09-09T10:21:12;92531.34;;;24.82;84.83
10716;BME280;5409;42.620;23.316;2022-09-09T10:23:51;92522.84;;;24.69;78.04
10716;BME280;5409;42.620;23.316;2022-09-09T10:26:31;92530.06;;;24.83;79.50
10716;BME280;5409;42.620;23.316;2022-09-09T10:29:12;92537.59;;;24.88;78.70
10716;BME280;5409;42.620;23.316;2022-09-09T10:31:52;92528.25;;;24.85;81.42
10716;BME280;5409;42.620;23.316;2022-09-09T10:34:37;92527.09;;;24.51;80.14
10716;BME280;5409;42.620;23.316;2022-09-09T10:37:18;92529.53;;;24.31;82.04
10716;BME280;5409;42.620;23.316;2022-09-09T10:39:53;92534.13;;;23.99;86.17
10716;BME280;5409;42.620;23.316;2022-09-09T10:42:29;92533.97;;;23.86;82.46
10716;BME280;5409;42.620;23.316;2022-09-09T10:45:06;92533.97;;;23.86;87.40
10716;BME280;5409;42.620;23.316;2022-09-09T10:47:52;92534.13;;;23.99;91.73
10716;BME280;5409;42.620;23.316;2022-09-09T10:50:50;92538.97;;;23.99;89.54
10716;BME280;5409;42.620;23.316;2022-09-09T10:53:26;92531.28;;;24.05;82.29
10716;BME280;5409;42.620;23.316;2022-09-09T10:56:01;92530.53;;;24.04;89.64
10716;BME280;5409;42.620;23.316;2022-09-09T10:58:35;92530.22;;;24.13;84.83
10716;BME280;5409;42.620;23.316;2022-09-09T11:01:11;92520.84;;;24.11;84.67
10716;BME280;5409;42.620;23.316;2022-09-09T11:03:42;92522.13;;;24.10;94.86
10716;BME280;5409;42.620;23.316;2022-09-09T11:06:12;92541.00;;;24.22;96.41
10716;BME280;5409;42.620;23.316;2022-09-09T11:08:42;92536.75;;;24.21;97.88
10716;BME280;5409;42.620;23.316;2022-09-09T11:11:12;92533.84;;;24.32;100.00
10716;BME280;5409;42.620;23.316;2022-09-09T11:13:45;92534.31;;;24.36;91.38
10716;BME280;5409;42.620;23.316;2022-09-09T11:16:22;92526.66;;;24.42;100.00
10716;BME280;5409;42.620;23.316;2022-09-09T11:18:56;92528.41;;;24.45;96.10
10716;BME280;5409;42.620;23.316;2022-09-09T11:21:27;92527.72;;;24.63;90.55
10716;BME280;5409;42.620;23.316;2022-09-09T11:24:01;92520.66;;;24.86;85.49
10716;BME280;5409;42.620;23.316;2022-09-09T11:26:33;92521.88;;;25.09;85.02
10716;BME280;5409;42.620;23.316;2022-09-09T11:29:18;92501.03;;;24.91;86.54
10716;BME280;5409;42.620;23.316;2022-09-09T11:32:00;92502.19;;;25.01;88.09
10716;BME280;5409;42.620;23.316;2022-09-09T11:34:50;92486.84;;;25.32;88.50
10716;BME280;5409;42.620;23.316;2022-09-09T11:37:41;92483.28;;;25.49;83.34
10716;BME280;5409;42.620;23.316;2022-09-09T11:40:19;92495.28;;;25.63;80.50
10716;BME280;5409;42.620;23.316;2022-09-09T11:42:47;92496.88;;;25.58;74.04
10716;BME280;5409;42.620;23.316;2022-09-09T11:45:23;92482.81;;;25.64;78.21
10716;BME280;5409;42.620;23.316;2022-09-09T11:47:52;92473.91;;;25.84;84.12
10716;BME280;5409;42.620;23.316;2022-09-09T11:50:31;92448.28;;;25.98;81.09
10716;BME280;5409;42.620;23.316;2022-09-09T11:53:18;92440.63;;;25.99;83.82
10716;BME280;5409;42.620;23.316;2022-09-09T11:56:01;92442.03;;;25.92;79.90
10716;BME280;5409;42.620;23.316;2022-09-09T11:58:33;92444.75;;;25.79;83.84
10716;BME280;5409;42.620;23.316;2022-09-09T12:01:13;92448.38;;;25.06;93.40
10716;BME280;5409;42.620;23.316;2022-09-09T12:03:43;92464.25;;;24.74;82.89
10716;BME280;5409;42.620;23.316;2022-09-09T12:06:14;92468.13;;;24.66;86.69
10716;BME280;5409;42.620;23.316;2022-09-09T12:08:43;92455.13;;;25.11;87.35
10716;BME280;5409;42.620;23.316;2022-09-09T12:11:24;92451.44;;;25.58;82.66
10716;BME280;5409;42.620;23.316;2022-09-09T12:13:53;92441.19;;;25.97;87.14
10716;BME280;5409;42.620;23.316;2022-09-09T12:16:32;92430.44;;;26.01;80.78
10716;BME280;5409;42.620;23.316;2022-09-09T12:19:12;92449.47;;;26.03;78.98
10716;BME280;5409;42.620;23.316;2022-09-09T12:21:46;92447.16;;;26.33;83.10
10716;BME280;5409;42.620;23.316;2022-09-09T12:24:22;92433.38;;;26.35;78.14
10716;BME280;5409;42.620;23.316;2022-09-09T12:26:58;92442.03;;;26.50;81.25
10716;BME280;5409;42.620;23.316;2022-09-09T12:29:35;92447.72;;;26.44;74.03
10716;BME280;5409;42.620;23.316;2022-09-09T12:32:10;92439.72;;;26.22;76.14
10716;BME280;5409;42.620;23.316;2022-09-09T12:34:39;92434.31;;;26.11;80.79
10716;BME280;5409;42.620;23.316;2022-09-09T12:37:15;92435.53;;;26.29;80.95
10716;BME280;5409;42.620;23.316;2022-09-09T12:39:48;92422.84;;;26.15;73.74
10716;BME280;5409;42.620;23.316;2022-09-09T12:42:20;92421.22;;;26.19;78.19
10716;BME280;5409;42.620;23.316;2022-09-09T12:44:54;92420.03;;;26.15;79.19
10716;BME280;5409;42.620;23.316;2022-09-09T12:47:25;92428.31;;;25.76;78.54
10716;BME280;5409;42.620;23.316;2022-09-09T12:49:52;92423.59;;;25.52;80.65
10716;BME280;5409;42.620;23.316;2022-09-09T12:52:26;92410.81;;;25.57;87.62
10716;BME280;5409;42.620;23.316;2022-09-09T12:54:56;92413.78;;;25.77;82.84
10716;BME280;5409;42.620;23.316;2022-09-09T12:57:25;92408.00;;;26.20;86.14
10716;BME280;5409;42.620;23.316;2022-09-09T13:00:04;92404.28;;;26.69;84.87
10716;BME280;5409;42.620;23.316;2022-09-09T13:02:32;92401.25;;;26.54;72.10
10716;BME280;5409;42.620;23.316;2022-09-09T13:05:06;92407.28;;;26.45;79.78
10716;BME280;5409;42.620;23.316;2022-09-09T13:07:39;92403.63;;;26.37;80.84
10716;BME280;5409;42.620;23.316;2022-09-09T13:10:11;92401.75;;;26.27;80.11
10716;BME280;5409;42.620;23.316;2022-09-09T13:12:39;92397.91;;;26.43;79.33
10716;BME280;5409;42.620;23.316;2022-09-09T13:15:14;92396.94;;;26.27;78.69
10716;BME280;5409;42.620;23.316;2022-09-09T13:17:49;92401.41;;;26.04;77.62